createdAt,value
2022-09-24T00:02:20.725Z,98848.38
2022-09-24T00:06:23.682Z,98847.38
2022-09-24T00:10:25.602Z,98835.13
2022-09-24T00:14:27.616Z,98839.66
2022-09-24T00:18:30.424Z,98831.84
2022-09-24T00:22:32.872Z,98831.34
2022-09-24T00:26:49.966Z,98829.25
2022-09-24T00:30:52.467Z,98832.25
2022-09-24T00:34:54.973Z,98836.06
2022-09-24T00:38:58.786Z,98833.84
2022-09-24T00:43:01.314Z,98827.84
2022-09-24T00:47:03.376Z,98836.34
2022-09-24T00:51:06.784Z,98839.72
2022-09-24T00:55:09.708Z,98835.22
2022-09-24T00:59:17.395Z,98819.53
2022-09-24T01:03:25.591Z,98821.22
2022-09-24T01:07:27.570Z,98820.97
2022-09-24T01:12:01.856Z,98822.28
2022-09-24T01:16:16.093Z,98830.84
2022-09-24T01:20:37.266Z,98812.03
2022-09-24T01:24:42.314Z,98806.59
2022-09-24T01:28:56.688Z,98797.34
2022-09-24T01:33:04.155Z,98797.34
2022-09-24T01:37:06.762Z,98792.03
2022-09-24T01:41:12.220Z,98796.22
2022-09-24T01:45:16.493Z,98790.47
2022-09-24T01:49:18.516Z,98793.66
2022-09-24T01:53:25.589Z,98782.81
2022-09-24T01:57:38.029Z,98786.81
2022-09-24T02:02:11.469Z,98787.53
2022-09-24T02:06:24.987Z,98787.72
2022-09-24T02:10:30.850Z,98786.00
2022-09-24T02:14:40.288Z,98780.22
2022-09-24T02:18:48.157Z,98784.91
2022-09-24T02:22:51.837Z,98782.16
2022-09-24T02:26:57.920Z,98765.03
2022-09-24T02:31:28.395Z,98755.44
2022-09-24T02:35:30.991Z,98757.13
2022-09-24T02:39:32.977Z,98764.22
2022-09-24T02:43:36.410Z,98762.44
2022-09-24T02:47:38.959Z,98760.28
2022-09-24T02:51:42.609Z,98767.91
2022-09-24T02:55:44.721Z,98767.66
2022-09-24T02:59:47.146Z,98770.22
2022-09-24T03:03:49.228Z,98770.22
2022-09-24T03:07:51.142Z,98780.25
2022-09-24T03:11:53.105Z,98776.88
2022-09-24T03:15:55.232Z,98789.16
2022-09-24T03:19:57.323Z,98788.09
2022-09-24T03:24:00.259Z,98785.09
2022-09-24T03:28:02.346Z,98784.41
2022-09-24T03:32:04.279Z,98790.44
2022-09-24T03:36:10.875Z,98792.47
2022-09-24T03:40:13.308Z,98788.06
2022-09-24T03:44:15.252Z,98783.53
2022-09-24T03:48:18.497Z,98784.84
2022-09-24T03:52:20.563Z,98791.63
2022-09-24T03:56:22.603Z,98786.81
2022-09-24T04:00:24.618Z,98781.59
2022-09-24T04:04:28.096Z,98790.63
2022-09-24T04:08:31.596Z,98788.91
2022-09-24T04:12:33.559Z,98780.66
2022-09-24T04:16:36.411Z,98788.47
2022-09-24T04:20:38.551Z,98790.88
2022-09-24T04:24:40.595Z,98792.09
2022-09-24T04:28:42.628Z,98785.13
2022-09-24T04:32:45.072Z,98784.06
2022-09-24T04:36:47.029Z,98776.13
2022-09-24T04:40:49.545Z,98777.88
2022-09-24T04:44:55.855Z,98775.06
2022-09-24T04:48:58.427Z,98785.56
2022-09-24T04:53:01.259Z,98780.50
2022-09-24T04:57:03.227Z,98780.34
2022-09-24T05:01:05.278Z,98774.34
2022-09-24T05:05:07.671Z,98772.75
2022-09-24T05:09:12.535Z,98758.47
2022-09-24T05:13:14.946Z,98750.38
2022-09-24T05:17:17.028Z,98763.69
2022-09-24T05:21:19.153Z,98773.97
2022-09-24T05:25:22.313Z,98784.09
2022-09-24T05:29:24.564Z,98798.78
2022-09-24T05:33:27.039Z,98786.06
2022-09-24T05:37:29.745Z,98776.22
2022-09-24T05:41:34.878Z,98792.56
2022-09-24T05:45:36.876Z,98778.94
2022-09-24T05:49:39.611Z,98777.75
2022-09-24T05:53:41.674Z,98781.66
2022-09-24T05:57:44.251Z,98786.56
2022-09-24T06:01:46.237Z,98784.13
2022-09-24T06:05:50.198Z,98777.72
2022-09-24T06:09:52.223Z,98781.28
2022-09-24T06:13:54.111Z,98771.19
2022-09-24T06:17:56.119Z,98779.66
2022-09-24T06:21:58.413Z,98786.47
2022-09-24T06:26:00.848Z,98781.28
2022-09-24T06:30:03.111Z,98766.19
2022-09-24T06:34:05.409Z,98773.69
2022-09-24T06:38:10.661Z,98771.06
2022-09-24T06:42:12.702Z,98767.31
2022-09-24T06:46:15.784Z,98767.38
2022-09-24T06:50:18.472Z,98769.06
2022-09-24T06:54:20.817Z,98771.22
2022-09-24T06:58:23.805Z,98782.44
2022-09-24T07:02:25.965Z,98791.59
2022-09-24T07:06:47.968Z,98784.72
2022-09-24T07:10:49.970Z,98789.72
2022-09-24T07:14:51.949Z,98793.41
2022-09-24T07:18:53.905Z,98798.97
2022-09-24T07:22:56.826Z,98797.28
2022-09-24T07:26:58.849Z,98786.97
2022-09-24T07:31:00.909Z,98799.72
2022-09-24T07:35:03.284Z,98799.63
2022-09-24T07:39:05.596Z,98799.09
2022-09-24T07:43:12.425Z,98799.97
2022-09-24T07:47:16.327Z,98792.81
2022-09-24T07:51:18.299Z,98802.09
2022-09-24T07:55:24.621Z,98794.41
2022-09-24T07:59:26.967Z,98789.53
2022-09-24T08:03:29.170Z,98782.50
2022-09-24T08:07:31.185Z,98789.75
2022-09-24T08:11:33.879Z,98779.59
2022-09-24T08:15:35.900Z,98773.56
2022-09-24T08:19:39.083Z,98789.75
2022-09-24T08:23:43.122Z,98783.03
2022-09-24T08:27:45.154Z,98765.47
2022-09-24T08:31:47.146Z,98750.47
2022-09-24T08:35:49.156Z,98770.22
2022-09-24T08:39:51.505Z,98754.72
2022-09-24T08:44:05.937Z,98741.47
2022-09-24T08:48:26.666Z,98742.81
2022-09-24T08:52:46.191Z,98744.03
2022-09-24T08:56:48.205Z,98733.56
2022-09-24T09:01:11.677Z,98736.09
2022-09-24T09:05:32.588Z,98734.13
2022-09-24T09:09:54.250Z,98729.56
2022-09-24T09:14:22.642Z,98752.22
2022-09-24T09:18:41.513Z,98738.03
2022-09-24T09:22:48.008Z,98738.75
2022-09-24T09:26:56.784Z,98743.00
2022-09-24T09:31:13.008Z,98728.50
2022-09-24T09:35:47.989Z,98725.78
2022-09-24T09:40:11.766Z,98709.09
2022-09-24T09:44:30.355Z,98705.06
2022-09-24T09:49:02.135Z,98700.47
2022-09-24T09:53:05.662Z,98690.00
2022-09-24T09:57:14.490Z,98691.13
2022-09-24T10:01:20.327Z,98689.34
2022-09-24T10:05:27.520Z,98670.59
2022-09-24T10:09:29.663Z,98671.03
2022-09-24T10:13:32.331Z,98658.28
2022-09-24T10:17:37.712Z,98642.72
2022-09-24T10:21:39.730Z,98642.44
2022-09-24T10:25:51.437Z,98629.59
2022-09-24T10:30:14.331Z,98622.34
2022-09-24T10:34:28.203Z,98612.00
2022-09-24T10:38:32.112Z,98603.78
2022-09-24T10:42:36.165Z,98594.84
2022-09-24T10:46:46.880Z,98600.66
2022-09-24T10:51:11.898Z,98602.53
2022-09-24T10:55:22.004Z,98601.16
2022-09-24T10:59:42.543Z,98597.38
2022-09-24T11:04:25.840Z,98602.19
2022-09-24T11:08:57.055Z,98587.84
2022-09-24T11:13:31.065Z,98582.97
2022-09-24T11:17:35.081Z,98571.81
2022-09-24T11:21:57.860Z,98572.09
2022-09-24T11:26:19.666Z,98559.41
2022-09-24T11:30:38.334Z,98551.00
2022-09-24T11:34:47.125Z,98540.00
2022-09-24T11:39:33.255Z,98529.31
2022-09-24T11:43:50.592Z,98528.00
2022-09-24T11:48:20.430Z,98525.78
2022-09-24T11:52:35.233Z,98524.44
2022-09-24T11:56:44.567Z,98515.25
2022-09-24T12:01:13.955Z,98512.34
2022-09-24T12:05:42.070Z,98510.63
2022-09-24T12:10:29.872Z,98500.34
2022-09-24T12:14:51.641Z,98497.03
2022-09-24T12:19:12.442Z,98489.78
2022-09-24T12:23:19.753Z,98492.66
2022-09-24T12:27:28.811Z,98515.63
2022-09-24T12:32:07.759Z,98516.28
2022-09-24T12:36:23.206Z,98508.38
2022-09-24T12:40:51.513Z,98522.69
2022-09-24T12:44:58.698Z,98506.94
2022-09-24T12:49:01.689Z,98501.63
2022-09-24T12:53:03.783Z,98482.94
2022-09-24T13:03:41.978Z,98504.88
2022-09-24T13:07:56.102Z,98524.13
2022-09-24T13:18:11.204Z,98522.00
2022-09-24T13:22:25.770Z,98518.38
2022-09-24T14:16:15.021Z,98493.97
2022-09-24T14:20:17.455Z,98492.38
2022-09-24T14:24:24.435Z,98505.16
2022-09-24T14:28:26.737Z,98510.22
2022-09-24T14:32:32.343Z,98523.28
2022-09-24T14:36:36.297Z,98529.13
2022-09-24T14:40:52.840Z,98542.75
2022-09-24T14:44:56.211Z,98536.47
2022-09-24T14:49:06.886Z,98534.09
2022-09-24T14:53:19.327Z,98532.63
2022-09-24T14:57:25.515Z,98512.31
2022-09-24T15:01:33.792Z,98504.66
2022-09-24T15:05:36.359Z,98513.72
2022-09-24T15:09:38.345Z,98501.19
2022-09-24T15:13:40.268Z,98502.09
2022-09-24T15:17:42.698Z,98508.75
2022-09-24T15:21:45.367Z,98518.50
2022-09-24T15:25:47.338Z,98510.81
2022-09-24T15:29:50.616Z,98509.44
2022-09-24T15:34:01.035Z,98501.38
2022-09-24T15:38:03.032Z,98505.34
2022-09-24T15:42:05.230Z,98496.00
2022-09-24T15:46:07.203Z,98486.88
2022-09-24T15:50:10.947Z,98475.13
2022-09-24T15:54:13.082Z,98471.84
2022-09-24T15:58:19.468Z,98444.88
2022-09-24T16:02:23.659Z,98444.09
2022-09-24T16:06:25.710Z,98434.13
2022-09-24T16:10:27.840Z,98414.16
2022-09-24T16:14:29.923Z,98413.25
2022-09-24T16:18:31.887Z,98402.91
2022-09-24T16:22:34.479Z,98413.84
2022-09-24T16:26:37.424Z,98417.81
2022-09-24T16:30:39.575Z,98433.94
2022-09-24T16:34:41.556Z,98449.25
2022-09-24T16:44:34.120Z,98454.81
2022-09-24T16:48:36.986Z,98422.50
2022-09-24T16:52:38.964Z,98414.19
2022-09-24T16:56:41.215Z,98407.22
2022-09-24T17:06:57.726Z,98437.00
2022-09-24T17:11:00.608Z,98430.47
2022-09-24T17:15:03.051Z,98408.63
2022-09-24T17:25:30.655Z,98415.38
2022-09-24T17:34:57.959Z,98426.97
2022-09-24T17:39:01.139Z,98434.16
2022-09-24T17:43:04.260Z,98410.22
2022-09-24T17:47:07.720Z,98411.00
2022-09-24T18:02:35.730Z,98421.91
2022-09-24T18:07:19.432Z,98408.22
2022-09-24T18:16:57.588Z,98404.59
2022-09-24T18:21:04.421Z,98406.47
2022-09-24T18:25:07.319Z,98416.75
2022-09-24T18:29:15.659Z,98413.88
2022-09-24T18:33:17.742Z,98403.94
2022-09-24T18:37:20.097Z,98436.28
2022-09-24T18:46:57.383Z,98420.19
2022-09-24T18:57:12.124Z,98379.81
2022-09-24T19:01:16.163Z,98371.28
2022-09-24T19:05:18.237Z,98370.00
2022-09-24T19:09:20.554Z,98367.94
2022-09-24T20:34:09.369Z,98376.44
2022-09-24T20:38:12.325Z,98363.72
2022-09-24T20:42:14.542Z,98355.97
2022-09-24T20:46:19.622Z,98352.50
2022-09-24T20:50:21.715Z,98345.16
2022-09-24T20:54:24.103Z,98338.50
2022-09-24T20:58:26.375Z,98335.47
2022-09-24T21:02:28.357Z,98343.38
2022-09-24T21:06:30.642Z,98347.06
2022-09-24T21:10:35.898Z,98381.94
2022-09-24T21:14:38.325Z,98384.06
2022-09-24T21:18:44.434Z,98394.59
2022-09-24T21:22:46.733Z,98420.22
2022-09-24T21:26:49.107Z,98424.50
2022-09-24T21:30:59.869Z,98393.78
2022-09-24T21:35:02.008Z,98402.31
2022-09-24T21:39:14.538Z,98405.31
2022-09-24T21:43:16.589Z,98400.34
2022-09-24T21:47:18.608Z,98405.63
2022-09-24T21:51:22.780Z,98411.28
2022-09-24T21:55:25.675Z,98411.09
2022-09-24T21:59:46.472Z,98413.16
2022-09-24T22:04:44.463Z,98433.81
2022-09-24T22:27:01.710Z,98391.75
2022-09-24T22:31:09.920Z,98413.41
2022-09-24T22:41:26.263Z,98413.50
2022-09-24T22:45:28.188Z,98414.38
2022-09-24T22:49:31.412Z,98391.13
2022-09-24T22:53:38.849Z,98406.19
2022-09-24T22:57:40.994Z,98399.25
2022-09-24T23:01:44.420Z,98384.25
2022-09-24T23:05:46.754Z,98379.47
2022-09-24T23:09:49.148Z,98361.81
2022-09-24T23:13:57.266Z,98350.59
2022-09-24T23:17:59.162Z,98354.84
2022-09-24T23:22:01.095Z,98344.44
2022-09-24T23:26:07.121Z,98330.59
2022-09-24T23:30:09.932Z,98330.50
2022-09-24T23:34:13.751Z,98351.75
2022-09-24T23:38:16.511Z,98351.94
2022-09-24T23:42:18.383Z,98356.25
2022-09-24T23:46:20.913Z,98377.09
2022-09-24T23:50:22.922Z,98373.13
2022-09-24T23:54:24.957Z,98375.22
2022-09-24T23:58:27.405Z,98383.75
